メインページ
METAR-TAF:

METAR-TAF

空港 :

フナフティ国際空港

フナフティ島, ツバル

緯度: 08-31S, 経度: 179-13E, 海抜: 1m

現時点の気象観測

当レポートは2時間16分前の08:00(UTC)に作成
南東の風 5kt
気温 29°C
湿度 79%
気圧 1012 hPa
視程10km以上
高度1800ftの雲はほとんどない

METAR: NGFU 180800Z 13005KT 9999 FEW018 29/25 Q1012

時間: 22:16 (10:16 UTC)

予報

当レポートは5時間11分前の05:05(UTC)に作成
予報は18日の 06時(UTC)から 19日の 06時(UTC)まで有効
東/南東の風 5kt
視程10km以上
高度2000ftの雲はほとんどない

TAF: NGFU 180505Z 1806/1906 12005KT 9999 FEW020

4,000以上の空港の気象観測と天気予報(METAR報とTAF報)

利用可能な観測所は地図上に黄色い丸と赤い丸で示す。

丸の上にカーソルを重ねると観測所名を参照できる。

次にクリックすると気象観測と天気予報を参照できる。

マップの切り替え:黒色「×」印の緑ボタンをクリックして拡大、「-」印の緑ボタンをクリックして縮小、緑色の三角印をクリックして隣りの地図に切り替え


METAR-TAF: